Time,TemperatureF,DewpointF,PressureIn,WindDirection,WindDirectionDegrees,WindSpeedMPH,WindSpeedGustMPH,Humidity,HourlyPrecipIn,Conditions,Clouds,dailyrainin,SolarRadiationWatts/m^2,SoftwareType,DateUTC
2014-01-11 00:00:00,35.2,33.9,30.13,SE,135,0.0,0.0,95,0.00,,,0.38,0,Wunderground v.1.15,2014-01-11 05:00:00,
2014-01-11 00:05:00,35.2,33.9,30.13,SE,135,0.0,0.0,95,0.00,,,0.00,0,Wunderground v.1.15,2014-01-11 05:05:00,
2014-01-11 00:10:00,35.3,34.0,30.13,SE,135,0.0,0.0,95,0.00,,,0.00,0,Wunderground v.1.15,2014-01-11 05:10:00,
2014-01-11 00:15:00,35.4,34.1,30.12,SE,135,0.0,0.0,95,0.00,,,0.00,0,Wunderground v.1.15,2014-01-11 05:15:00,
2014-01-11 00:20:00,35.5,34.2,30.11,SE,135,0.0,0.0,95,0.00,,,0.00,0,Wunderground v.1.15,2014-01-11 05:20:00,
2014-01-11 00:25:00,35.5,34.2,30.11,SE,135,0.0,0.0,95,0.00,,,0.00,0,Wunderground v.1.15,2014-01-11 05:25:00,
2014-01-11 00:35:00,35.6,34.3,30.11,SE,135,0.0,1.0,95,0.00,,,0.00,0,Wunderground v.1.15,2014-01-11 05:35:00,
2014-01-11 00:45:00,35.7,34.4,30.10,SE,135,0.0,1.0,95,0.00,,,0.00,0,Wunderground v.1.15,2014-01-11 05:45:00,
2014-01-11 00:50:00,35.7,34.4,30.10,SE,135,0.0,1.0,95,0.00,,,0.01,0,Wunderground v.1.15,2014-01-11 05:50:00,
2014-01-11 00:55:00,35.8,34.5,30.09,SE,135,0.0,1.0,95,0.00,,,0.01,0,Wunderground v.1.15,2014-01-11 05:55:00,
2014-01-11 01:00:00,35.9,34.6,30.09,SE,135,0.0,0.0,95,0.00,,,0.01,0,Wunderground v.1.15,2014-01-11 06:00:00,
2014-01-11 01:10:00,35.9,34.3,30.08,SE,135,0.0,0.0,94,0.00,,,0.01,0,Wunderground v.1.15,2014-01-11 06:10:00,
2014-01-11 01:15:00,35.9,34.3,30.08,SE,135,0.0,0.0,94,0.00,,,0.01,0,Wunderground v.1.15,2014-01-11 06:15:00,
2014-01-11 01:25:00,36.0,34.4,30.07,SE,135,0.0,0.0,94,0.00,,,0.01,0,Wunderground v.1.15,2014-01-11 06:25:00,
2014-01-11 01:30:00,36.0,34.4,30.07,SE,135,0.0,0.0,94,0.00,,,0.01,0,Wunderground v.1.15,2014-01-11 06:30:00,
2014-01-11 01:35:00,35.8,34.2,30.07,SE,135,0.0,1.0,94,0.00,,,0.01,0,Wunderground v.1.15,2014-01-11 06:35:00,
2014-01-11 01:40:00,35.7,34.1,30.07,SE,135,0.0,1.0,94,0.00,,,0.01,0,Wunderground v.1.15,2014-01-11 06:40:00,
2014-01-11 01:50:00,35.6,34.0,30.06,SE,135,0.0,1.0,94,0.00,,,0.01,0,Wunderground v.1.15,2014-01-11 06:50:00,
2014-01-11 02:05:00,35.6,34.3,30.05,SE,135,0.0,0.0,95,0.00,,,0.01,0,Wunderground v.1.15,2014-01-11 07:05:00,
2014-01-11 02:10:00,35.6,34.3,30.05,SE,135,0.0,0.0,95,0.00,,,0.01,0,Wunderground v.1.15,2014-01-11 07:10:00,
2014-01-11 02:20:00,35.5,34.2,30.04,SE,135,0.0,0.0,95,0.00,,,0.01,0,Wunderground v.1.15,2014-01-11 07:20:00,
2014-01-11 02:25:00,35.3,34.0,30.04,SE,135,0.0,0.0,95,0.00,,,0.01,0,Wunderground v.1.15,2014-01-11 07:25:00,
2014-01-11 02:35:00,35.2,33.9,30.03,SE,135,0.0,0.0,95,0.00,,,0.01,0,Wunderground v.1.15,2014-01-11 07:35:00,
2014-01-11 02:45:00,35.2,33.9,30.01,SE,135,0.0,0.0,95,0.00,,,0.01,0,Wunderground v.1.15,2014-01-11 07:45:00,
2014-01-11 02:50:00,35.2,33.9,30.01,SE,135,0.0,0.0,95,0.00,,,0.01,0,Wunderground v.1.15,2014-01-11 07:50:00,
2014-01-11 02:55:00,35.3,34.0,30.01,SE,135,0.0,0.0,95,0.00,,,0.01,0,Wunderground v.1.15,2014-01-11 07:55:00,
2014-01-11 03:00:00,35.4,34.1,30.02,SE,135,0.0,0.0,95,0.00,,,0.01,0,Wunderground v.1.15,2014-01-11 08:00:00,
2014-01-11 03:10:00,35.3,34.0,30.02,SE,135,0.0,0.0,95,0.00,,,0.01,0,Wunderground v.1.15,2014-01-11 08:10:00,
2014-01-11 03:15:00,35.3,34.0,30.00,SE,135,0.0,0.0,95,0.16,,,0.03,0,Wunderground v.1.15,2014-01-11 08:15:00,
2014-01-11 03:20:00,35.4,34.4,29.99,SE,135,0.0,0.0,96,0.89,,,0.07,0,Wunderground v.1.15,2014-01-11 08:20:00,
2014-01-11 03:25:00,35.6,34.6,30.00,SE,135,0.0,0.0,96,0.52,,,0.13,0,Wunderground v.1.15,2014-01-11 08:25:00,
2014-01-11 03:35:00,35.7,34.7,29.99,SE,135,0.0,0.0,96,0.06,,,0.14,0,Wunderground v.1.15,2014-01-11 08:35:00,
2014-01-11 03:45:00,35.9,34.9,29.98,SE,135,0.0,0.0,96,0.00,,,0.14,0,Wunderground v.1.15,2014-01-11 08:45:00,
2014-01-11 03:50:00,36.0,35.0,29.99,SE,135,0.0,0.0,96,0.00,,,0.14,0,Wunderground v.1.15,2014-01-11 08:50:00,
2014-01-11 03:55:00,36.1,35.1,29.98,SE,135,0.0,0.0,96,0.00,,,0.14,0,Wunderground v.1.15,2014-01-11 08:55:00,
2014-01-11 04:00:00,36.0,35.0,29.97,SE,135,0.0,0.0,96,0.00,,,0.14,0,Wunderground v.1.15,2014-01-11 09:00:00,
2014-01-11 04:10:00,35.9,34.9,29.97,SE,135,0.0,0.0,96,0.00,,,0.14,0,Wunderground v.1.15,2014-01-11 09:10:00,
2014-01-11 04:15:00,35.9,34.9,29.97,SE,135,0.0,0.0,96,0.00,,,0.14,0,Wunderground v.1.15,2014-01-11 09:15:00,
2014-01-11 04:25:00,36.1,35.1,29.96,SE,135,0.0,0.0,96,0.00,,,0.14,0,Wunderground v.1.15,2014-01-11 09:25:00,
2014-01-11 04:30:00,36.1,35.1,29.95,SE,135,0.0,0.0,96,0.00,,,0.14,0,Wunderground v.1.15,2014-01-11 09:30:00,
2014-01-11 04:35:00,36.1,35.1,29.95,SE,135,0.0,1.0,96,0.00,,,0.14,0,Wunderground v.1.15,2014-01-11 09:35:00,
2014-01-11 04:40:00,36.2,35.2,29.94,SE,135,0.0,1.0,96,0.00,,,0.14,0,Wunderground v.1.15,2014-01-11 09:40:00,
2014-01-11 04:50:00,36.2,35.2,29.94,SE,135,0.0,1.0,96,0.00,,,0.14,0,Wunderground v.1.15,2014-01-11 09:50:00,
2014-01-11 05:00:00,36.2,34.9,29.94,SE,135,0.0,0.0,95,0.00,,,0.15,0,Wunderground v.1.15,2014-01-11 10:00:00,
2014-01-11 05:10:00,36.2,34.9,29.94,SE,135,0.0,0.0,95,0.00,,,0.15,0,Wunderground v.1.15,2014-01-11 10:10:00,
2014-01-11 05:15:00,36.1,34.8,29.94,SE,135,0.0,0.0,95,0.00,,,0.15,0,Wunderground v.1.15,2014-01-11 10:15:00,
2014-01-11 05:20:00,36.1,35.1,29.93,SE,135,0.0,0.0,96,0.00,,,0.15,0,Wunderground v.1.15,2014-01-11 10:20:00,
2014-01-11 05:30:00,36.3,35.3,29.92,SE,135,0.0,0.0,96,0.00,,,0.15,0,Wunderground v.1.15,2014-01-11 10:30:00,
2014-01-11 05:35:00,36.5,35.5,29.92,SE,135,0.0,0.0,96,0.00,,,0.15,0,Wunderground v.1.15,2014-01-11 10:35:00,
2014-01-11 05:40:00,36.5,35.5,29.92,SE,135,0.0,0.0,96,0.00,,,0.15,0,Wunderground v.1.15,2014-01-11 10:40:00,
2014-01-11 05:50:00,36.4,35.4,29.92,SE,135,0.0,0.0,96,0.00,,,0.15,0,Wunderground v.1.15,2014-01-11 10:50:00,
2014-01-11 05:55:00,36.5,35.5,29.91,SE,135,0.0,0.0,96,0.00,,,0.15,0,Wunderground v.1.15,2014-01-11 10:55:00,
2014-01-11 06:00:00,36.5,35.5,29.91,SE,135,0.0,0.0,96,0.00,,,0.15,0,Wunderground v.1.15,2014-01-11 11:00:00,
2014-01-11 06:10:00,36.4,35.4,29.90,SE,135,0.0,0.0,96,0.00,,,0.15,0,Wunderground v.1.15,2014-01-11 11:10:00,
2014-01-11 06:20:00,36.6,35.6,29.89,SE,135,0.0,0.0,96,0.00,,,0.15,0,Wunderground v.1.15,2014-01-11 11:20:00,
2014-01-11 06:25:00,36.8,35.8,29.88,SE,135,0.0,0.0,96,0.00,,,0.15,0,Wunderground v.1.15,2014-01-11 11:25:00,
2014-01-11 06:35:00,37.1,36.3,29.87,SE,135,0.0,0.0,97,0.00,,,0.15,0,Wunderground v.1.15,2014-01-11 11:35:00,
2014-01-11 06:45:00,37.3,36.3,29.86,SE,135,0.0,0.0,96,0.00,,,0.15,0,Wunderground v.1.15,2014-01-11 11:45:00,
2014-01-11 06:55:00,37.3,36.3,29.86,SE,135,0.0,0.0,96,0.00,,,0.15,0,Wunderground v.1.15,2014-01-11 11:55:00,
2014-01-11 07:00:00,37.4,36.4,29.85,SE,135,0.0,0.0,96,0.00,,,0.15,0,Wunderground v.1.15,2014-01-11 12:00:00,
2014-01-11 07:10:00,37.5,36.5,29.85,SE,135,0.0,0.0,96,0.00,,,0.15,0,Wunderground v.1.15,2014-01-11 12:10:00,
2014-01-11 07:20:00,37.7,36.7,29.85,SE,135,0.0,0.0,96,0.00,,,0.15,0,Wunderground v.1.15,2014-01-11 12:20:00,
2014-01-11 07:25:00,37.8,36.8,29.84,SE,135,0.0,0.0,96,0.00,,,0.16,0,Wunderground v.1.15,2014-01-11 12:25:00,
2014-01-11 07:30:00,37.9,36.9,29.84,SE,135,0.0,0.0,96,0.09,,,0.17,0,Wunderground v.1.15,2014-01-11 12:30:00,
2014-01-11 07:35:00,38.0,37.0,29.84,SE,135,0.0,0.0,96,0.07,,,0.17,0,Wunderground v.1.15,2014-01-11 12:35:00,
2014-01-11 07:40:00,38.0,37.0,29.83,SE,135,0.0,0.0,96,0.04,,,0.17,0,Wunderground v.1.15,2014-01-11 12:40:00,
2014-01-11 07:50:00,37.9,36.9,29.83,SE,135,0.0,0.0,96,0.00,,,0.17,0,Wunderground v.1.15,2014-01-11 12:50:00,
2014-01-11 08:00:00,37.9,36.9,29.82,SE,135,0.0,0.0,96,0.00,,,0.17,0,Wunderground v.1.15,2014-01-11 13:00:00,
2014-01-11 08:10:00,38.5,37.5,29.81,SE,135,0.0,0.0,96,0.00,,,0.17,5,Wunderground v.1.15,2014-01-11 13:10:00,
2014-01-11 08:15:00,38.9,38.1,29.81,SE,135,0.0,0.0,97,0.00,,,0.18,0,Wunderground v.1.15,2014-01-11 13:15:00,
2014-01-11 08:25:00,39.2,38.4,29.82,SE,135,0.0,0.0,97,0.00,,,0.18,0,Wunderground v.1.15,2014-01-11 13:25:00,
2014-01-11 08:35:00,39.4,38.6,29.81,SE,135,0.0,1.0,97,0.14,,,0.23,0,Wunderground v.1.15,2014-01-11 13:35:00,
2014-01-11 08:45:00,39.5,38.5,29.81,SE,135,0.0,0.0,96,0.12,,,0.25,0,Wunderground v.1.15,2014-01-11 13:45:00,
2014-01-11 08:50:00,39.4,38.4,29.80,SE,135,0.0,0.0,96,0.09,,,0.26,5,Wunderground v.1.15,2014-01-11 13:50:00,
2014-01-11 08:55:00,39.5,38.5,29.79,SE,135,0.0,0.0,96,0.27,,,0.29,7,Wunderground v.1.15,2014-01-11 13:55:00,
2014-01-11 09:00:00,39.6,38.6,29.79,SE,135,0.0,0.0,96,0.09,,,0.30,11,Wunderground v.1.15,2014-01-11 14:00:00,
2014-01-11 09:10:00,39.5,38.5,29.78,SE,135,0.0,0.0,96,0.05,,,0.30,9,Wunderground v.1.15,2014-01-11 14:10:00,
2014-01-11 09:20:00,39.4,38.4,29.78,SE,135,0.0,0.0,96,0.00,,,0.30,16,Wunderground v.1.15,2014-01-11 14:20:00,
2014-01-11 09:25:00,39.4,38.4,29.78,SE,135,0.0,0.0,96,0.00,,,0.30,16,Wunderground v.1.15,2014-01-11 14:25:00,
2014-01-11 09:30:00,39.4,38.4,29.77,SE,135,0.0,0.0,96,0.00,,,0.30,19,Wunderground v.1.15,2014-01-11 14:30:00,
2014-01-11 09:40:00,39.7,38.7,29.77,SE,135,0.0,1.0,96,0.00,,,0.30,21,Wunderground v.1.15,2014-01-11 14:40:00,
2014-01-11 09:45:00,39.7,38.7,29.76,SE,135,0.0,1.0,96,0.00,,,0.30,28,Wunderground v.1.15,2014-01-11 14:45:00,
2014-01-11 09:55:00,39.7,38.7,29.75,SE,135,0.0,1.0,96,0.00,,,0.30,26,Wunderground v.1.15,2014-01-11 14:55:00,
2014-01-11 10:00:00,39.9,38.9,29.75,SE,135,0.0,0.0,96,0.00,,,0.31,23,Wunderground v.1.15,2014-01-11 15:00:00,
2014-01-11 10:10:00,40.4,39.4,29.74,SE,135,0.0,0.0,96,0.00,,,0.31,18,Wunderground v.1.15,2014-01-11 15:10:00,
2014-01-11 10:15:00,40.6,39.5,29.74,SE,135,0.0,0.0,96,0.00,,,0.31,16,Wunderground v.1.15,2014-01-11 15:15:00,
2014-01-11 10:20:00,40.8,39.7,29.74,SE,135,0.0,0.0,96,0.00,,,0.31,7,Wunderground v.1.15,2014-01-11 15:20:00,
2014-01-11 10:30:00,40.7,39.6,29.74,SE,135,0.0,3.0,96,0.00,,,0.32,5,Wunderground v.1.15,2014-01-11 15:30:00,
2014-01-11 10:35:00,40.7,39.6,29.75,SW,225,1.0,3.0,96,0.92,,,0.36,7,Wunderground v.1.15,2014-01-11 15:35:00,
2014-01-11 10:40:00,40.6,39.5,29.73,SW,234,1.0,1.0,96,0.24,,,0.39,7,Wunderground v.1.15,2014-01-11 15:40:00,
2014-01-11 10:45:00,40.7,39.6,29.73,SW,234,1.0,1.0,96,0.08,,,0.40,5,Wunderground v.1.15,2014-01-11 15:45:00,
2014-01-11 10:50:00,40.7,39.9,29.73,SW,230,1.0,3.0,97,0.26,,,0.42,9,Wunderground v.1.15,2014-01-11 15:50:00,
2014-01-11 11:00:00,41.2,40.4,29.71,SW,229,0.0,0.0,97,0.22,,,0.46,14,Wunderground v.1.15,2014-01-11 16:00:00,
2014-01-11 11:10:00,41.9,41.1,29.69,SW,220,1.0,1.0,97,0.10,,,0.47,14,Wunderground v.1.15,2014-01-11 16:10:00,
2014-01-11 11:20:00,43.0,42.2,29.67,SE,131,1.0,3.0,97,0.06,,,0.48,9,Wunderground v.1.15,2014-01-11 16:20:00,
2014-01-11 11:25:00,44.1,43.6,29.65,SSW,194,2.0,3.0,98,0.15,,,0.50,11,Wunderground v.1.15,2014-01-11 16:25:00,
2014-01-11 11:35:00,45.9,45.4,29.64,SSW,199,3.0,7.0,98,0.08,,,0.51,19,Wunderground v.1.15,2014-01-11 16:35:00,
2014-01-11 11:45:00,46.7,46.2,29.62,SE,143,2.0,4.0,98,0.00,,,0.51,44,Wunderground v.1.15,2014-01-11 16:45:00,
2014-01-11 11:50:00,46.9,46.4,29.61,SSW,211,2.0,2.0,98,0.00,,,0.51,69,Wunderground v.1.15,2014-01-11 16:50:00,
2014-01-11 12:00:00,48.2,47.7,29.60,SW,231,2.0,2.0,98,0.00,,,0.51,74,Wunderground v.1.15,2014-01-11 17:00:00,
2014-01-11 12:10:00,50.6,50.1,29.58,South,175,2.0,2.0,98,0.00,,,0.51,127,Wunderground v.1.15,2014-01-11 17:10:00,
2014-01-11 12:20:00,52.3,51.8,29.59,SSW,205,5.0,12.0,98,0.00,,,0.51,51,Wunderground v.1.15,2014-01-11 17:20:00,
2014-01-11 12:25:00,53.6,53.0,29.58,SSW,202,9.0,12.0,98,0.00,,,0.51,33,Wunderground v.1.15,2014-01-11 17:25:00,
2014-01-11 12:30:00,53.9,53.3,29.58,SSW,204,10.0,12.0,98,0.00,,,0.51,25,Wunderground v.1.15,2014-01-11 17:30:00,
2014-01-11 12:40:00,53.4,52.8,29.57,SW,225,9.0,12.0,98,0.00,,,0.51,12,Wunderground v.1.15,2014-01-11 17:40:00,
2014-01-11 12:45:00,53.2,52.7,29.56,SW,231,8.0,12.0,98,0.17,,,0.53,14,Wunderground v.1.15,2014-01-11 17:45:00,
2014-01-11 12:50:00,53.0,52.5,29.55,SSW,205,7.0,7.0,98,0.22,,,0.55,19,Wunderground v.1.15,2014-01-11 17:50:00,
2014-01-11 12:55:00,52.9,52.4,29.55,SW,220,6.0,12.0,98,0.67,,,0.57,9,Wunderground v.1.15,2014-01-11 17:55:00,
2014-01-11 13:00:00,52.9,52.4,29.54,WSW,240,6.0,6.0,98,0.17,,,0.60,14,Wunderground v.1.15,2014-01-11 18:00:00,
2014-01-11 13:10:00,52.9,52.4,29.54,SSW,211,6.0,7.0,98,0.11,,,0.62,9,Wunderground v.1.15,2014-01-11 18:10:00,
2014-01-11 13:15:00,53.0,52.5,29.54,SSW,213,7.0,7.0,98,0.14,,,0.63,7,Wunderground v.1.15,2014-01-11 18:15:00,
2014-01-11 13:20:00,52.9,52.4,29.57,SW,228,8.0,8.0,98,0.47,,,0.66,5,Wunderground v.1.15,2014-01-11 18:20:00,
2014-01-11 13:30:00,51.8,51.0,29.58,SW,223,8.0,8.0,97,0.29,,,0.77,7,Wunderground v.1.15,2014-01-11 18:30:00,
2014-01-11 13:35:00,50.8,49.7,29.58,WSW,252,8.0,24.0,96,0.69,,,0.82,9,Wunderground v.1.15,2014-01-11 18:35:00,
2014-01-11 13:40:00,50.4,49.3,29.57,SW,236,7.0,7.0,96,0.40,,,0.85,9,Wunderground v.1.15,2014-01-11 18:40:00,
2014-01-11 13:50:00,50.2,49.1,29.57,West,262,7.0,7.0,96,0.32,,,0.93,18,Wunderground v.1.15,2014-01-11 18:50:00,
2014-01-11 14:00:00,50.1,49.3,29.56,WSW,237,5.0,7.0,97,0.08,,,0.95,19,Wunderground v.1.15,2014-01-11 19:00:00,
2014-01-11 14:10:00,50.1,49.3,29.55,WSW,247,4.0,4.0,97,0.05,,,0.95,18,Wunderground v.1.15,2014-01-11 19:10:00,
2014-01-11 14:20:00,50.3,49.5,29.52,SSW,195,2.0,2.0,97,0.00,,,0.95,42,Wunderground v.1.15,2014-01-11 19:20:00,
2014-01-11 14:30:00,50.9,50.1,29.50,SSW,201,3.0,3.0,97,0.00,,,0.95,19,Wunderground v.1.15,2014-01-11 19:30:00,
2014-01-11 14:35:00,50.9,50.1,29.49,SSW,193,3.0,24.0,97,0.00,,,0.95,18,Wunderground v.1.15,2014-01-11 19:35:00,
2014-01-11 14:45:00,50.7,49.9,29.51,SW,234,3.0,24.0,97,0.00,,,0.95,18,Wunderground v.1.15,2014-01-11 19:45:00,
2014-01-11 14:50:00,50.7,49.9,29.51,WSW,252,2.0,24.0,97,0.00,,,0.95,23,Wunderground v.1.15,2014-01-11 19:50:00,
2014-01-11 15:00:00,50.8,50.0,29.52,WSW,253,4.0,5.0,97,0.00,,,0.95,23,Wunderground v.1.15,2014-01-11 20:00:00,
2014-01-11 15:10:00,50.9,49.8,29.52,West,259,6.0,6.0,96,0.00,,,0.95,23,Wunderground v.1.15,2014-01-11 20:10:00,
2014-01-11 15:20:00,50.8,49.7,29.52,WSW,240,6.0,6.0,96,0.00,,,0.95,18,Wunderground v.1.15,2014-01-11 20:20:00,
2014-01-11 15:30:00,50.6,49.5,29.52,WSW,252,4.0,4.0,96,0.00,,,0.96,11,Wunderground v.1.15,2014-01-11 20:30:00,
2014-01-11 15:35:00,50.5,49.4,29.53,SW,216,5.0,5.0,96,0.00,,,0.96,11,Wunderground v.1.15,2014-01-11 20:35:00,
2014-01-11 15:45:00,50.2,49.1,29.53,WSW,244,4.0,12.0,96,0.04,,,0.97,9,Wunderground v.1.15,2014-01-11 20:45:00,
2014-01-11 15:50:00,50.0,48.9,29.53,WSW,239,5.0,5.0,96,0.04,,,0.97,7,Wunderground v.1.15,2014-01-11 20:50:00,
2014-01-11 15:55:00,49.9,48.8,29.52,SW,232,5.0,12.0,96,0.07,,,0.98,7,Wunderground v.1.15,2014-01-11 20:55:00,
2014-01-11 16:00:00,49.8,48.7,29.51,WSW,244,4.0,5.0,96,0.08,,,0.99,5,Wunderground v.1.15,2014-01-11 21:00:00,
2014-01-11 16:10:00,49.6,48.5,29.52,SSW,209,1.0,1.0,96,0.07,,,1.00,5,Wunderground v.1.15,2014-01-11 21:10:00,
2014-01-11 16:15:00,49.5,48.4,29.52,SSW,211,1.0,1.0,96,0.07,,,1.01,0,Wunderground v.1.15,2014-01-11 21:15:00,
2014-01-11 16:25:00,49.2,48.1,29.51,SW,219,1.0,1.0,96,0.10,,,1.02,0,Wunderground v.1.15,2014-01-11 21:25:00,
2014-01-11 16:30:00,49.1,48.0,29.50,SW,219,0.0,0.0,96,0.09,,,1.03,0,Wunderground v.1.15,2014-01-11 21:30:00,
2014-01-11 16:35:00,49.0,47.9,29.49,SW,219,0.0,13.0,96,0.11,,,1.04,0,Wunderground v.1.15,2014-01-11 21:35:00,
2014-01-11 16:40:00,49.0,47.9,29.49,SW,219,0.0,13.0,96,0.09,,,1.04,0,Wunderground v.1.15,2014-01-11 21:40:00,
2014-01-11 16:45:00,49.0,47.9,29.48,SW,230,0.0,13.0,96,0.05,,,1.04,0,Wunderground v.1.15,2014-01-11 21:45:00,
2014-01-11 16:50:00,49.0,47.9,29.47,SW,230,0.0,13.0,96,0.04,,,1.04,0,Wunderground v.1.15,2014-01-11 21:50:00,
2014-01-11 17:00:00,49.2,48.4,29.45,SE,130,0.0,0.0,97,0.00,,,1.04,0,Wunderground v.1.15,2014-01-11 22:00:00,
2014-01-11 17:10:00,49.1,48.3,29.43,SE,130,1.0,2.0,97,0.00,,,1.04,0,Wunderground v.1.15,2014-01-11 22:10:00,
2014-01-11 17:15:00,49.1,48.3,29.42,SE,130,1.0,2.0,97,0.00,,,1.04,0,Wunderground v.1.15,2014-01-11 22:15:00,
2014-01-11 17:20:00,49.2,48.4,29.43,SSW,207,1.0,1.0,97,0.00,,,1.04,0,Wunderground v.1.15,2014-01-11 22:20:00,
2014-01-11 17:30:00,49.2,48.4,29.43,WNW,296,1.0,3.0,97,0.00,,,1.04,0,Wunderground v.1.15,2014-01-11 22:30:00,
2014-01-11 17:35:00,49.1,48.3,29.43,WNW,291,1.0,6.0,97,0.00,,,1.04,0,Wunderground v.1.15,2014-01-11 22:35:00,
2014-01-11 17:40:00,48.8,47.7,29.41,SE,128,0.0,6.0,96,0.00,,,1.04,0,Wunderground v.1.15,2014-01-11 22:40:00,
2014-01-11 17:45:00,48.9,48.1,29.38,SE,124,0.0,6.0,97,0.00,,,1.04,0,Wunderground v.1.15,2014-01-11 22:45:00,
2014-01-11 17:55:00,48.7,47.9,29.38,SSE,167,0.0,6.0,97,0.00,,,1.04,0,Wunderground v.1.15,2014-01-11 22:55:00,
2014-01-11 18:00:00,48.8,48.0,29.42,SW,236,2.0,2.0,97,0.00,,,1.04,0,Wunderground v.1.15,2014-01-11 23:00:00,
2014-01-11 18:10:00,48.6,47.5,29.39,SW,236,0.0,0.0,96,0.00,,,1.04,0,Wunderground v.1.15,2014-01-11 23:10:00,
2014-01-11 18:20:00,48.2,47.1,29.40,SW,236,1.0,1.0,96,0.00,,,1.04,0,Wunderground v.1.15,2014-01-11 23:20:00,
2014-01-11 18:30:00,48.0,47.2,29.46,SW,236,2.0,2.0,97,0.00,,,1.04,0,Wunderground v.1.15,2014-01-11 23:30:00,
2014-01-11 18:40:00,47.9,47.1,29.46,WSW,238,1.0,10.0,97,0.00,,,1.04,0,Wunderground v.1.15,2014-01-11 23:40:00,
2014-01-11 18:45:00,47.9,47.1,29.44,WSW,238,2.0,10.0,97,0.00,,,1.04,0,Wunderground v.1.15,2014-01-11 23:45:00,
2014-01-11 18:55:00,47.7,46.9,29.42,SW,236,0.0,10.0,97,0.00,,,1.04,0,Wunderground v.1.15,2014-01-11 23:55:00,
2014-01-11 19:00:00,47.5,46.4,29.45,SW,236,0.0,0.0,96,0.00,,,1.04,0,Wunderground v.1.15,2014-01-12 00:00:00,
2014-01-11 19:10:00,47.7,46.9,29.42,SW,236,1.0,1.0,97,0.00,,,1.04,0,Wunderground v.1.15,2014-01-12 00:10:00,
2014-01-11 19:15:00,47.8,47.0,29.47,SW,236,0.0,1.0,97,0.00,,,1.04,0,Wunderground v.1.15,2014-01-12 00:15:00,
2014-01-11 19:25:00,48.1,47.3,29.47,WSW,237,1.0,1.0,97,0.00,,,1.04,0,Wunderground v.1.15,2014-01-12 00:25:00,
2014-01-11 19:30:00,48.3,47.5,29.45,WSW,248,1.0,1.0,97,0.00,,,1.04,0,Wunderground v.1.15,2014-01-12 00:30:00,
2014-01-11 19:35:00,48.6,47.8,29.44,WSW,246,1.0,6.0,97,0.00,,,1.04,0,Wunderground v.1.15,2014-01-12 00:35:00,
2014-01-11 19:40:00,48.7,47.9,29.46,WSW,253,1.0,1.0,97,0.00,,,1.04,0,Wunderground v.1.15,2014-01-12 00:40:00,
2014-01-11 19:50:00,48.8,48.0,29.46,SW,225,1.0,1.0,97,0.00,,,1.05,0,Wunderground v.1.15,2014-01-12 00:50:00,
2014-01-11 19:55:00,48.9,48.1,29.46,WSW,250,3.0,7.0,97,0.00,,,1.05,0,Wunderground v.1.15,2014-01-12 00:55:00,
2014-01-11 20:00:00,49.1,48.3,29.45,SW,234,4.0,4.0,97,0.00,,,1.05,0,Wunderground v.1.15,2014-01-12 01:00:00,
2014-01-11 20:10:00,49.2,48.4,29.46,SW,221,2.0,6.0,97,0.00,,,1.05,0,Wunderground v.1.15,2014-01-12 01:10:00,
2014-01-11 20:20:00,49.3,48.5,29.46,WSW,248,3.0,3.0,97,0.00,,,1.05,0,Wunderground v.1.15,2014-01-12 01:20:00,
2014-01-11 20:25:00,49.4,48.6,29.46,WSW,255,3.0,3.0,97,0.00,,,1.05,0,Wunderground v.1.15,2014-01-12 01:25:00,
2014-01-11 20:30:00,49.5,48.7,29.46,SW,216,3.0,8.0,97,0.00,,,1.05,0,Wunderground v.1.15,2014-01-12 01:30:00,
2014-01-11 20:40:00,49.7,48.9,29.46,SW,223,6.0,6.0,97,0.00,,,1.05,0,Wunderground v.1.15,2014-01-12 01:40:00,
2014-01-11 20:50:00,49.6,48.5,29.47,SSW,213,3.0,5.0,96,0.00,,,1.05,0,Wunderground v.1.15,2014-01-12 01:50:00,
2014-01-11 20:55:00,49.6,48.5,29.46,WSW,249,4.0,5.0,96,0.00,,,1.05,0,Wunderground v.1.15,2014-01-12 01:55:00,
2014-01-11 21:00:00,49.6,48.5,29.47,WSW,250,3.0,8.0,96,0.00,,,1.05,0,Wunderground v.1.15,2014-01-12 02:00:00,
2014-01-11 21:10:00,49.5,48.4,29.47,SW,232,3.0,3.0,96,0.00,,,1.05,0,Wunderground v.1.15,2014-01-12 02:10:00,
2014-01-11 21:15:00,49.5,48.4,29.48,WSW,246,4.0,4.0,96,0.00,,,1.05,0,Wunderground v.1.15,2014-01-12 02:15:00,
2014-01-11 21:25:00,49.4,48.3,29.48,WSW,243,3.0,5.0,96,0.00,,,1.05,0,Wunderground v.1.15,2014-01-12 02:25:00,
2014-01-11 21:30:00,49.3,48.2,29.49,WSW,242,3.0,4.0,96,0.00,,,1.05,0,Wunderground v.1.15,2014-01-12 02:30:00,
2014-01-11 21:40:00,49.1,48.0,29.49,WSW,240,3.0,3.0,96,0.00,,,1.05,0,Wunderground v.1.15,2014-01-12 02:40:00,
2014-01-11 21:45:00,49.0,47.9,29.49,WSW,250,3.0,5.0,96,0.00,,,1.05,0,Wunderground v.1.15,2014-01-12 02:45:00,
2014-01-11 21:55:00,48.9,47.5,29.49,WSW,257,3.0,12.0,95,0.00,,,1.05,0,Wunderground v.1.15,2014-01-12 02:55:00,
2014-01-11 22:00:00,48.8,47.2,29.49,WSW,237,3.0,3.0,94,0.00,,,1.05,0,Wunderground v.1.15,2014-01-12 03:00:00,
2014-01-11 22:10:00,48.7,46.5,29.49,WSW,252,3.0,3.0,92,0.00,,,1.05,0,Wunderground v.1.15,2014-01-12 03:10:00,
2014-01-11 22:20:00,48.5,46.0,29.49,West,265,3.0,3.0,91,0.00,,,1.05,0,Wunderground v.1.15,2014-01-12 03:20:00,
2014-01-11 22:30:00,48.3,45.2,29.49,WNW,282,3.0,3.0,89,0.00,,,1.05,0,Wunderground v.1.15,2014-01-12 03:30:00,
2014-01-11 22:35:00,48.3,45.2,29.50,WNW,292,4.0,4.0,89,0.00,,,1.05,0,Wunderground v.1.15,2014-01-12 03:35:00,
2014-01-11 22:40:00,48.2,45.1,29.50,WNW,295,3.0,3.0,89,0.00,,,1.05,0,Wunderground v.1.15,2014-01-12 03:40:00,
2014-01-11 22:50:00,48.1,45.0,29.51,WNW,293,1.0,1.0,89,0.00,,,1.05,0,Wunderground v.1.15,2014-01-12 03:50:00,
2014-01-11 22:55:00,48.1,44.4,29.51,NW,309,1.0,3.0,87,0.00,,,1.05,0,Wunderground v.1.15,2014-01-12 03:55:00,
2014-01-11 23:05:00,47.9,44.2,29.51,WNW,288,2.0,4.0,87,0.00,,,1.05,0,Wunderground v.1.15,2014-01-12 04:05:00,
2014-01-11 23:10:00,48.0,43.7,29.52,NW,315,3.0,4.0,85,0.00,,,1.05,0,Wunderground v.1.15,2014-01-12 04:10:00,
2014-01-11 23:20:00,48.0,43.4,29.52,NW,313,4.0,4.0,84,0.00,,,1.05,0,Wunderground v.1.15,2014-01-12 04:20:00,
2014-01-11 23:25:00,47.9,42.7,29.52,West,281,4.0,4.0,82,0.00,,,1.05,0,Wunderground v.1.15,2014-01-12 04:25:00,
2014-01-11 23:35:00,47.6,41.7,29.52,WSW,250,4.0,5.0,80,0.00,,,1.05,0,Wunderground v.1.15,2014-01-12 04:35:00,
2014-01-11 23:40:00,47.5,41.6,29.52,NW,311,5.0,5.0,80,0.00,,,1.05,0,Wunderground v.1.15,2014-01-12 04:40:00,
2014-01-11 23:45:00,47.3,41.1,29.52,WNW,294,4.0,4.0,79,0.00,,,1.05,0,Wunderground v.1.15,2014-01-12 04:45:00,
2014-01-11 23:55:00,47.4,40.6,29.53,NW,311,4.0,4.0,77,0.00,,,1.05,0,Wunderground v.1.15,2014-01-12 04:55:00,